createdAt,value
2017-09-09T06:02:27.797Z,3.65
2017-09-09T06:04:55.100Z,4.00
2017-09-09T06:07:22.430Z,3.87
2017-09-09T06:09:49.681Z,4.30
2017-09-09T06:12:16.975Z,3.30
2017-09-09T06:14:44.279Z,3.70
2017-09-09T06:17:11.557Z,3.70
2017-09-09T06:19:38.867Z,4.20
2017-09-09T06:22:06.300Z,4.30
2017-09-09T06:24:33.565Z,3.60
2017-09-09T06:27:00.880Z,4.90
2017-09-09T06:29:28.145Z,3.63
2017-09-09T06:31:55.412Z,4.10
2017-09-09T06:34:22.719Z,4.30
2017-09-09T06:36:49.999Z,4.57
2017-09-09T06:39:17.306Z,4.87
2017-09-09T06:41:44.582Z,3.83
2017-09-09T06:44:11.877Z,4.53
2017-09-09T06:46:39.170Z,4.30
2017-09-09T06:49:06.467Z,4.50
2017-09-09T06:51:33.739Z,3.70
2017-09-09T06:54:01.054Z,4.07
2017-09-09T06:56:28.326Z,3.70
2017-09-09T06:58:55.594Z,3.87
2017-09-09T07:01:22.899Z,3.63
2017-09-09T07:03:50.306Z,3.53
2017-09-09T07:06:17.611Z,4.00
2017-09-09T07:08:45.314Z,2.70
2017-09-09T07:11:12.768Z,3.20
2017-09-09T07:13:40.088Z,2.83
2017-09-09T07:16:07.361Z,3.30
2017-09-09T07:18:35.050Z,3.00
2017-09-09T07:21:02.387Z,2.60
2017-09-09T07:23:29.671Z,2.60
2017-09-09T07:25:57.989Z,2.07
2017-09-09T07:28:26.438Z,2.00
2017-09-09T07:30:54.083Z,1.77
2017-09-09T07:33:21.532Z,2.00
2017-09-09T07:35:48.827Z,1.73
2017-09-09T07:38:16.136Z,2.20
2017-09-09T07:40:43.453Z,2.17
2017-09-09T07:43:10.727Z,2.40
2017-09-09T07:45:38.057Z,1.80
2017-09-09T07:48:05.350Z,2.20
2017-09-09T07:50:32.620Z,2.40
2017-09-09T07:52:59.917Z,2.07
2017-09-09T07:55:27.220Z,2.00
2017-09-09T07:57:54.635Z,2.17
2017-09-09T08:00:21.896Z,1.83
2017-09-09T08:02:49.213Z,1.60
2017-09-09T08:05:16.490Z,1.67
2017-09-09T08:07:43.802Z,1.40
2017-09-09T08:10:11.106Z,1.63
2017-09-09T08:12:38.409Z,1.40
2017-09-09T08:15:05.682Z,1.50
2017-09-09T08:17:32.972Z,1.30
2017-09-09T08:20:00.327Z,1.40
2017-09-09T08:22:27.620Z,1.30
2017-09-09T08:24:54.884Z,1.07
2017-09-09T08:27:22.198Z,1.30
2017-09-09T08:29:49.469Z,1.20
2017-09-09T08:32:16.736Z,1.40
2017-09-09T08:34:44.040Z,1.30
2017-09-09T08:37:11.315Z,1.27
2017-09-09T08:39:38.603Z,1.10
2017-09-09T08:42:05.912Z,1.33
2017-09-09T08:44:33.215Z,1.50
2017-09-09T08:47:00.523Z,1.40
2017-09-09T08:49:27.782Z,1.20
2017-09-09T08:51:55.050Z,1.47
2017-09-09T08:54:22.386Z,1.40
2017-09-09T08:56:49.739Z,1.10
2017-09-09T08:59:16.998Z,1.47
2017-09-09T09:01:44.295Z,1.30
2017-09-09T09:04:11.600Z,1.20
2017-09-09T09:06:38.863Z,1.63
2017-09-09T09:09:06.153Z,1.20
2017-09-09T09:11:33.443Z,1.23
2017-09-09T09:14:00.750Z,1.00
2017-09-09T09:16:28.051Z,1.20
2017-09-09T09:18:55.310Z,1.07
2017-09-09T09:21:22.588Z,1.60
2017-09-09T09:23:49.909Z,1.27
2017-09-09T09:26:17.195Z,1.13
2017-09-09T09:28:44.516Z,1.40
2017-09-09T09:31:11.811Z,1.83
2017-09-09T09:33:39.072Z,1.10
2017-09-09T09:36:06.379Z,0.83
2017-09-09T09:38:33.749Z,1.07
2017-09-09T09:41:01.032Z,1.00
2017-09-09T09:43:28.291Z,0.83
2017-09-09T09:45:55.599Z,1.30
2017-09-09T09:48:22.861Z,0.90
2017-09-09T09:50:50.169Z,1.10
2017-09-09T09:53:17.465Z,1.13
2017-09-09T09:55:44.778Z,1.10
2017-09-09T09:58:12.063Z,1.00
2017-09-09T10:00:40.298Z,0.90
2017-09-09T10:03:07.653Z,1.10
2017-09-09T10:05:34.932Z,1.10
2017-09-09T10:08:02.207Z,1.00
2017-09-09T10:10:29.515Z,1.40
2017-09-09T10:12:56.787Z,1.20
2017-09-09T10:15:24.083Z,1.40
2017-09-09T10:17:51.355Z,1.40
2017-09-09T10:20:18.684Z,1.30
2017-09-09T10:22:45.955Z,1.00
2017-09-09T10:25:28.140Z,1.27
2017-09-09T10:27:55.415Z,1.50
2017-09-09T10:30:22.712Z,1.10
2017-09-09T10:32:49.975Z,1.20
2017-09-09T10:35:17.242Z,1.43
2017-09-09T10:37:44.545Z,1.00
2017-09-09T10:40:11.826Z,1.47
2017-09-09T10:42:39.108Z,1.30
2017-09-09T10:45:06.410Z,1.60
2017-09-09T10:47:41.316Z,1.40
2017-09-09T10:50:12.138Z,1.30
2017-09-09T10:52:39.404Z,1.23
2017-09-09T10:55:06.712Z,1.40
2017-09-09T10:57:34.023Z,1.37
2017-09-09T11:00:01.302Z,1.20
2017-09-09T11:02:28.593Z,1.20
2017-09-09T11:04:55.887Z,1.27
2017-09-09T11:07:23.191Z,1.10
2017-09-09T11:09:50.523Z,1.27
2017-09-09T11:12:17.796Z,1.30
2017-09-09T11:14:45.071Z,0.97
2017-09-09T11:17:12.374Z,1.37
2017-09-09T11:19:39.638Z,1.30
2017-09-09T11:22:06.925Z,1.40
2017-09-09T11:24:34.227Z,1.30
2017-09-09T11:27:01.495Z,1.20
2017-09-09T11:29:28.823Z,1.40
2017-09-09T11:31:56.081Z,1.30
2017-09-09T11:34:23.349Z,1.20
2017-09-09T11:36:50.645Z,1.00
2017-09-09T11:39:17.899Z,1.20
2017-09-09T11:41:45.203Z,1.13
2017-09-09T11:44:12.462Z,1.10
2017-09-09T11:46:39.770Z,1.10
2017-09-09T11:49:07.033Z,1.00
2017-09-09T11:51:34.300Z,0.87
2017-09-09T11:54:01.595Z,1.30
2017-09-09T11:56:28.851Z,1.27
2017-09-09T11:58:56.194Z,1.30
2017-09-09T12:01:23.461Z,1.30
2017-09-09T12:03:50.715Z,1.47
2017-09-09T12:06:18.630Z,1.47
2017-09-09T12:08:45.924Z,1.10
2017-09-09T12:11:13.194Z,1.50
2017-09-09T12:13:40.490Z,1.30
2017-09-09T12:16:07.781Z,1.73
2017-09-09T12:18:35.074Z,1.77
2017-09-09T12:21:02.342Z,1.83
2017-09-09T12:23:29.635Z,1.90
2017-09-09T12:25:56.956Z,1.93
2017-09-09T12:28:24.219Z,2.10
2017-09-09T12:30:51.553Z,2.40
2017-09-09T12:33:18.852Z,2.27
2017-09-09T12:35:46.121Z,2.50
2017-09-09T12:38:13.381Z,2.40
2017-09-09T12:40:40.688Z,2.20
2017-09-09T12:43:08.003Z,2.50
2017-09-09T12:45:35.261Z,2.47
2017-09-09T12:48:02.524Z,1.90
2017-09-09T12:50:29.847Z,2.43
2017-09-09T12:52:57.148Z,2.13
2017-09-09T12:55:24.416Z,2.50
2017-09-09T12:57:51.690Z,2.43
2017-09-09T13:00:18.990Z,2.50
2017-09-09T13:02:46.252Z,2.73
2017-09-09T13:05:13.530Z,2.50
2017-09-09T13:07:40.816Z,2.67
2017-09-09T13:10:08.116Z,2.77
2017-09-09T13:12:35.380Z,2.63
2017-09-09T13:15:02.655Z,3.10
2017-09-09T13:17:29.964Z,2.83
2017-09-09T13:19:57.222Z,2.57
2017-09-09T13:22:24.505Z,3.00
2017-09-09T13:24:51.793Z,2.60
2017-09-09T13:27:19.084Z,2.40
2017-09-09T13:29:46.389Z,2.30
2017-09-09T13:32:13.659Z,2.50
2017-09-09T13:34:40.968Z,2.40
2017-09-09T13:37:08.264Z,2.10
2017-09-09T13:39:35.579Z,2.00
2017-09-09T13:42:02.848Z,2.53
2017-09-09T13:44:30.116Z,2.63
2017-09-09T13:46:57.434Z,2.47
2017-09-09T13:49:24.701Z,2.37
2017-09-09T13:51:51.964Z,2.47
2017-09-09T13:54:19.258Z,1.90
2017-09-09T13:56:46.524Z,2.27
2017-09-09T13:59:14.708Z,1.90
2017-09-09T14:01:41.976Z,2.20
2017-09-09T14:04:09.258Z,2.10
2017-09-09T14:06:36.548Z,2.40
2017-09-09T14:09:03.825Z,2.23
2017-09-09T14:11:31.114Z,2.03
2017-09-09T14:13:58.415Z,1.87
2017-09-09T14:16:25.683Z,2.40
2017-09-09T14:18:52.978Z,2.23
2017-09-09T14:21:20.241Z,2.57
2017-09-09T14:23:47.553Z,2.30
2017-09-09T14:26:14.813Z,2.10
2017-09-09T14:28:42.128Z,2.37
2017-09-09T14:31:09.572Z,2.30
2017-09-09T14:33:36.898Z,2.30
2017-09-09T14:36:04.194Z,2.10
2017-09-09T14:38:31.452Z,2.00
2017-09-09T14:40:58.755Z,2.10
2017-09-09T14:43:26.087Z,1.90
2017-09-09T14:45:53.355Z,1.87
2017-09-09T14:48:20.626Z,2.00
2017-09-09T14:50:47.923Z,1.80
2017-09-09T14:53:15.221Z,1.93
2017-09-09T14:55:42.501Z,1.60
2017-09-09T14:58:09.799Z,1.60
2017-09-09T15:00:37.099Z,1.80
2017-09-09T15:03:04.397Z,1.67
2017-09-09T15:05:31.667Z,2.10
2017-09-09T15:07:58.987Z,2.00
2017-09-09T15:10:26.260Z,2.10
2017-09-09T15:12:53.547Z,1.83
2017-09-09T15:15:20.862Z,1.80
2017-09-09T15:17:48.110Z,2.00
2017-09-09T15:20:15.380Z,1.80
2017-09-09T15:22:42.683Z,1.83
2017-09-09T15:25:09.983Z,1.83
2017-09-09T15:27:37.252Z,1.80
2017-09-09T15:30:04.508Z,1.97
2017-09-09T15:32:31.816Z,1.97
2017-09-09T15:34:59.095Z,1.30
2017-09-09T15:37:26.367Z,1.60
2017-09-09T15:39:53.655Z,1.67
2017-09-09T15:42:20.925Z,1.97
2017-09-09T15:44:48.210Z,1.60
2017-09-09T15:47:15.515Z,1.50
2017-09-09T15:49:42.816Z,1.50
2017-09-09T15:52:10.179Z,2.00
2017-09-09T15:54:37.443Z,1.60
2017-09-09T15:57:04.711Z,1.80
2017-09-09T15:59:32.005Z,1.83
2017-09-09T16:01:59.265Z,1.87
2017-09-09T16:04:26.576Z,2.30
2017-09-09T16:06:53.845Z,1.90
2017-09-09T16:09:21.413Z,2.33
2017-09-09T16:11:48.708Z,2.00
2017-09-09T16:14:15.987Z,2.20
2017-09-09T16:16:43.252Z,1.60
2017-09-09T16:19:10.558Z,1.80
2017-09-09T16:21:37.836Z,1.73
2017-09-09T16:24:05.113Z,2.00
2017-09-09T16:26:32.430Z,1.70
2017-09-09T16:28:59.708Z,1.80
2017-09-09T16:31:26.975Z,1.60
2017-09-09T16:33:54.302Z,1.53
2017-09-09T16:36:21.571Z,1.73
2017-09-09T16:38:48.836Z,1.63
2017-09-09T16:41:16.128Z,1.80
2017-09-09T16:43:43.399Z,1.47
2017-09-09T16:46:10.693Z,1.80
2017-09-09T16:48:37.994Z,1.50
2017-09-09T16:51:05.261Z,1.40
2017-09-09T16:53:32.563Z,1.70
2017-09-09T16:55:59.828Z,1.63
2017-09-09T16:58:27.227Z,1.60
2017-09-09T17:00:54.484Z,2.03
2017-09-09T17:03:21.760Z,1.70
2017-09-09T17:05:49.058Z,1.60
2017-09-09T17:08:16.368Z,1.70
2017-09-09T17:10:43.649Z,1.70
2017-09-09T17:13:10.951Z,2.10
2017-09-09T17:15:38.244Z,1.70
2017-09-09T17:18:05.521Z,1.90
2017-09-09T17:20:32.815Z,1.70
2017-09-09T17:23:00.130Z,1.60
2017-09-09T17:25:27.382Z,1.80
2017-09-09T17:27:54.665Z,2.07
2017-09-09T17:30:21.973Z,1.60
2017-09-09T17:32:49.278Z,1.80
2017-09-09T17:35:16.554Z,2.70
2017-09-09T17:37:43.842Z,1.73
2017-09-09T17:40:11.141Z,2.00
2017-09-09T17:42:38.442Z,2.00
2017-09-09T17:45:05.710Z,1.87
2017-09-09T17:47:33.029Z,1.67
2017-09-09T17:50:00.299Z,2.00
2017-09-09T17:52:27.559Z,2.10
2017-09-09T17:54:54.868Z,1.70
2017-09-09T17:57:22.172Z,1.50
2017-09-09T17:59:49.433Z,1.70
2017-09-09T18:02:16.788Z,1.67
2017-09-09T18:04:44.048Z,1.77
2017-09-09T18:07:11.330Z,1.80
2017-09-09T18:09:38.641Z,1.90
2017-09-09T18:12:05.908Z,1.90
2017-09-09T18:14:34.074Z,2.07
2017-09-09T18:17:01.373Z,1.80
2017-09-09T18:19:28.663Z,1.90
2017-09-09T18:21:55.975Z,1.87
2017-09-09T18:24:23.236Z,2.00
2017-09-09T18:26:50.522Z,2.00
2017-09-09T18:29:17.826Z,1.73
2017-09-09T18:31:45.112Z,2.03
2017-09-09T18:34:12.376Z,1.87
2017-09-09T18:36:39.682Z,1.90
2017-09-09T18:39:06.995Z,2.10
2017-09-09T18:41:34.287Z,1.97
2017-09-09T18:44:01.602Z,2.50
2017-09-09T18:46:28.946Z,2.13
2017-09-09T18:48:56.196Z,2.13
2017-09-09T18:51:23.476Z,2.07
2017-09-09T18:53:50.825Z,2.30
2017-09-09T18:56:18.097Z,2.40
2017-09-09T18:58:45.379Z,1.70
2017-09-09T19:01:12.684Z,1.40
2017-09-09T19:03:39.951Z,1.43
2017-09-09T19:06:07.244Z,1.10
2017-09-09T19:08:34.622Z,1.00
2017-09-09T19:11:01.872Z,1.13
2017-09-09T19:13:29.149Z,1.30
2017-09-09T19:15:56.438Z,1.20
2017-09-09T19:18:23.710Z,1.10
2017-09-09T19:20:51.678Z,1.37
2017-09-09T19:23:18.964Z,1.33
2017-09-09T19:25:46.250Z,1.27
2017-09-09T19:28:13.507Z,1.00
2017-09-09T19:30:40.815Z,1.10
2017-09-09T19:33:08.078Z,0.97
2017-09-09T19:35:35.381Z,1.00
2017-09-09T19:38:02.645Z,0.87
2017-09-09T19:40:29.944Z,0.90
2017-09-09T19:42:57.264Z,0.80
2017-09-09T19:45:24.583Z,1.40
2017-09-09T19:47:51.875Z,1.27
2017-09-09T19:50:19.182Z,0.83
2017-09-09T19:52:46.448Z,1.23
2017-09-09T19:55:13.728Z,1.03
2017-09-09T19:57:41.037Z,0.80
2017-09-09T20:00:08.306Z,1.07
2017-09-09T20:02:35.576Z,0.90
2017-09-09T20:05:02.897Z,1.17
2017-09-09T20:07:30.165Z,1.17
2017-09-09T20:09:57.485Z,0.93
2017-09-09T20:12:24.773Z,1.20
2017-09-09T20:14:52.042Z,1.27
2017-09-09T20:17:19.340Z,1.10
2017-09-09T20:19:46.617Z,0.90
2017-09-09T20:22:13.920Z,1.20
2017-09-09T20:24:41.201Z,1.60
2017-09-09T20:27:08.521Z,1.10
2017-09-09T20:29:35.783Z,1.13
2017-09-09T20:32:03.081Z,0.80
2017-09-09T20:34:30.603Z,1.17
2017-09-09T20:36:57.871Z,1.30
2017-09-09T20:39:25.170Z,1.00
2017-09-09T20:41:52.476Z,1.47
2017-09-09T20:44:19.767Z,1.17
2017-09-09T20:46:47.061Z,1.20
2017-09-09T20:49:14.366Z,1.60
2017-09-09T20:51:41.639Z,1.30
2017-09-09T20:54:08.968Z,1.67
2017-09-09T20:56:36.257Z,1.00
2017-09-09T20:59:03.530Z,1.40
2017-09-09T21:01:30.833Z,1.30
2017-09-09T21:03:58.099Z,1.13
2017-09-09T21:06:25.412Z,1.10
2017-09-09T21:08:52.716Z,1.00
2017-09-09T21:11:20.055Z,1.47
2017-09-09T21:13:47.345Z,1.10
2017-09-09T21:16:14.621Z,1.07
2017-09-09T21:18:41.946Z,1.10
2017-09-09T21:21:09.274Z,1.37
2017-09-09T21:23:36.561Z,1.07
2017-09-09T21:26:03.832Z,1.00
2017-09-09T21:28:31.115Z,1.30
2017-09-09T21:30:58.444Z,1.50
2017-09-09T21:33:25.739Z,1.30
2017-09-09T21:35:53.035Z,1.40
2017-09-09T21:38:20.375Z,1.80
2017-09-09T21:40:47.700Z,1.20
2017-09-09T21:43:14.972Z,1.20
2017-09-09T21:45:42.288Z,1.60
2017-09-09T21:48:09.590Z,1.50
2017-09-09T21:50:36.963Z,1.50
2017-09-09T21:53:04.242Z,1.00
2017-09-09T21:55:31.519Z,1.20
2017-09-09T21:57:58.836Z,1.50
2017-09-09T22:00:26.125Z,1.83
2017-09-09T22:02:53.468Z,1.13
2017-09-09T22:05:20.739Z,1.30
2017-09-09T22:07:48.025Z,1.70
2017-09-09T22:10:15.349Z,1.90
2017-09-09T22:12:42.620Z,1.80
2017-09-09T22:15:09.915Z,1.80
2017-09-09T22:17:37.232Z,1.50
2017-09-09T22:20:04.508Z,1.47
2017-09-09T22:22:31.798Z,1.70
2017-09-09T22:24:59.094Z,1.40
2017-09-09T22:27:26.386Z,1.10
2017-09-09T22:29:53.692Z,1.17
2017-09-09T22:32:20.959Z,1.17
2017-09-09T22:34:48.258Z,1.73
2017-09-09T22:37:15.546Z,2.23
2017-09-09T22:39:42.815Z,1.90
2017-09-09T22:42:10.132Z,2.00
2017-09-09T22:44:37.448Z,2.90
2017-09-09T22:47:04.719Z,3.23
2017-09-09T22:49:32.011Z,2.90
2017-09-09T22:51:59.389Z,2.63
2017-09-09T22:54:26.655Z,3.40
2017-09-09T22:56:53.976Z,3.53
2017-09-09T22:59:21.265Z,3.23
2017-09-09T23:01:48.578Z,3.10
2017-09-09T23:04:15.864Z,3.23
2017-09-09T23:06:43.141Z,3.30
2017-09-09T23:09:10.472Z,3.27
2017-09-09T23:11:37.746Z,3.13
2017-09-09T23:14:05.014Z,3.10
2017-09-09T23:16:32.340Z,2.70
2017-09-09T23:18:59.666Z,3.80
2017-09-09T23:21:26.960Z,3.90
2017-09-09T23:23:54.290Z,3.37
2017-09-09T23:26:21.597Z,3.70
2017-09-09T23:28:48.879Z,3.53
2017-09-09T23:31:16.164Z,3.00
2017-09-09T23:33:43.476Z,3.87
2017-09-09T23:36:10.791Z,3.37
2017-09-09T23:38:38.079Z,3.97
2017-09-09T23:41:05.412Z,4.17
2017-09-09T23:43:32.683Z,3.80
2017-09-09T23:46:00.030Z,3.17
2017-09-09T23:48:27.323Z,4.70
2017-09-09T23:50:54.645Z,3.87
2017-09-09T23:53:21.992Z,3.07
2017-09-09T23:55:49.273Z,4.17
2017-09-09T23:58:16.623Z,4.17
